Main page
METAR-TAF:

METAR-TAF

Airports :

Oil platform

P11-b, Netherlands

latitude: 52-21-36N, longitude: 3-20-30E, elevation: 24 m

Current weather observation

The report was made 43 minutes ago, at 13:55 UTC
Wind 13 kt from the South/Southeast
Temperature 10°C
Humidity 66%
Pressure 1023 hPa
Visibility 10 km or more

METAR: EHPG 041355Z AUTO 16013KT 9999 NCD 10/04 Q1023

Time: 16:38 (14:38 UTC)


TAF: missing

Weather observations and forecasts of more than 4000 airports (METAR and TAF reports).

The available stations are represented by yellow and red dots on the map.

Hover mouse over dot to see the name of the station.

Then click to see weather observations and forecasts.

To change the map : click on the green buttons with a black cross to zoom in, on the green button with a dash to zoom out, or on the green arrows for adjacent maps.


METAR-TAF: